Northampton, Pennsylvania
Current Conditions -  °F | °C
As of 11:51 AM on Thursday 27 Nov 2014 (Local Time) from KABE Reporting Station
Broken Clouds Broken Clouds  
Wind Chill: 27°   Ceiling: 2200
Heat Index: 35°   Visibility: 10mi
Dew Point: 26°   Wind: 10mph
Humidity: 70%   Direction: 320°NW
Pressure: 30.01"   Gusts: NA
Location:  40.69°N, 75.5°W
Report Text: KABE 271651Z 32009KT 10SM BKN022 BKN050 02/M03 A3001 RMK AO2 SLP164 T00171033 $
Loading
Personal Weather Stations






























Interactive Weather Map New forecast layout! Learn more

10-Day Weather Forecast

Advertisements
Track Severe Weather on mobile